sensor_id;sensor_type;location;lat;lon;timestamp;P1;durP1;ratioP1;P2;durP2;ratioP2
74630;SDS011;63138;55.082;38.804;2023-05-07T00:02:16;8.87;;;4.47;;
74630;SDS011;63138;55.082;38.804;2023-05-07T00:04:42;10.25;;;4.95;;
74630;SDS011;63138;55.082;38.804;2023-05-07T00:07:08;10.32;;;5.07;;
74630;SDS011;63138;55.082;38.804;2023-05-07T00:09:33;9.03;;;5.13;;
74630;SDS011;63138;55.082;38.804;2023-05-07T00:11:59;9.05;;;5.32;;
74630;SDS011;63138;55.082;38.804;2023-05-07T00:14:25;9.35;;;4.90;;
74630;SDS011;63138;55.082;38.804;2023-05-07T00:16:51;15.07;;;5.00;;
74630;SDS011;63138;55.082;38.804;2023-05-07T00:19:17;12.83;;;5.20;;
74630;SDS011;63138;55.082;38.804;2023-05-07T00:21:43;9.65;;;5.00;;
74630;SDS011;63138;55.082;38.804;2023-05-07T00:24:08;11.57;;;5.47;;
74630;SDS011;63138;55.082;38.804;2023-05-07T00:26:34;8.68;;;5.35;;
74630;SDS011;63138;55.082;38.804;2023-05-07T00:29:00;10.25;;;5.80;;
74630;SDS011;63138;55.082;38.804;2023-05-07T00:31:26;10.37;;;5.50;;
74630;SDS011;63138;55.082;38.804;2023-05-07T00:33:52;10.68;;;5.80;;
74630;SDS011;63138;55.082;38.804;2023-05-07T00:36:18;10.88;;;5.93;;
74630;SDS011;63138;55.082;38.804;2023-05-07T00:38:44;10.07;;;5.63;;
74630;SDS011;63138;55.082;38.804;2023-05-07T00:41:10;10.43;;;5.70;;
74630;SDS011;63138;55.082;38.804;2023-05-07T00:43:35;11.37;;;5.60;;
74630;SDS011;63138;55.082;38.804;2023-05-07T00:46:01;8.23;;;4.63;;
74630;SDS011;63138;55.082;38.804;2023-05-07T00:48:27;15.48;;;5.82;;
74630;SDS011;63138;55.082;38.804;2023-05-07T00:50:53;10.40;;;5.47;;
74630;SDS011;63138;55.082;38.804;2023-05-07T00:53:20;9.73;;;5.93;;
74630;SDS011;63138;55.082;38.804;2023-05-07T00:55:46;9.15;;;5.57;;
74630;SDS011;63138;55.082;38.804;2023-05-07T00:58:12;9.88;;;5.13;;
74630;SDS011;63138;55.082;38.804;2023-05-07T01:00:38;8.45;;;5.07;;
74630;SDS011;63138;55.082;38.804;2023-05-07T01:03:04;9.80;;;5.20;;
74630;SDS011;63138;55.082;38.804;2023-05-07T01:05:31;13.20;;;6.03;;
74630;SDS011;63138;55.082;38.804;2023-05-07T01:07:58;13.20;;;5.65;;
74630;SDS011;63138;55.082;38.804;2023-05-07T01:10:24;9.75;;;5.78;;
74630;SDS011;63138;55.082;38.804;2023-05-07T01:12:51;10.85;;;5.65;;
74630;SDS011;63138;55.082;38.804;2023-05-07T01:15:19;9.17;;;5.47;;
74630;SDS011;63138;55.082;38.804;2023-05-07T01:17:45;9.30;;;6.30;;
74630;SDS011;63138;55.082;38.804;2023-05-07T01:20:17;11.55;;;5.60;;
74630;SDS011;63138;55.082;38.804;2023-05-07T01:22:45;8.95;;;4.80;;
74630;SDS011;63138;55.082;38.804;2023-05-07T01:25:12;11.05;;;5.65;;
74630;SDS011;63138;55.082;38.804;2023-05-07T01:27:44;11.17;;;5.47;;
74630;SDS011;63138;55.082;38.804;2023-05-07T01:30:10;7.82;;;5.30;;
74630;SDS011;63138;55.082;38.804;2023-05-07T01:35:12;8.68;;;4.88;;
74630;SDS011;63138;55.082;38.804;2023-05-07T01:37:46;11.40;;;6.25;;
74630;SDS011;63138;55.082;38.804;2023-05-07T01:40:13;9.70;;;5.13;;
74630;SDS011;63138;55.082;38.804;2023-05-07T01:42:41;8.23;;;5.20;;
74630;SDS011;63138;55.082;38.804;2023-05-07T01:45:08;8.52;;;5.60;;
74630;SDS011;63138;55.082;38.804;2023-05-07T01:47:35;10.77;;;6.07;;
74630;SDS011;63138;55.082;38.804;2023-05-07T01:50:03;8.30;;;5.45;;
74630;SDS011;63138;55.082;38.804;2023-05-07T01:52:31;9.57;;;5.63;;
74630;SDS011;63138;55.082;38.804;2023-05-07T01:54:57;9.35;;;5.88;;
74630;SDS011;63138;55.082;38.804;2023-05-07T01:57:23;12.30;;;6.07;;
74630;SDS011;63138;55.082;38.804;2023-05-07T01:59:48;9.53;;;5.27;;
74630;SDS011;63138;55.082;38.804;2023-05-07T02:02:14;12.23;;;4.97;;
74630;SDS011;63138;55.082;38.804;2023-05-07T02:04:43;9.40;;;6.13;;
74630;SDS011;63138;55.082;38.804;2023-05-07T02:07:09;8.07;;;5.80;;
74630;SDS011;63138;55.082;38.804;2023-05-07T02:09:36;11.85;;;6.07;;
74630;SDS011;63138;55.082;38.804;2023-05-07T02:12:02;8.63;;;5.97;;
74630;SDS011;63138;55.082;38.804;2023-05-07T02:14:28;9.05;;;6.65;;
74630;SDS011;63138;55.082;38.804;2023-05-07T02:16:54;11.93;;;6.00;;
74630;SDS011;63138;55.082;38.804;2023-05-07T02:19:20;9.38;;;6.20;;
74630;SDS011;63138;55.082;38.804;2023-05-07T02:21:47;15.63;;;6.83;;
74630;SDS011;63138;55.082;38.804;2023-05-07T02:24:13;10.18;;;6.70;;
74630;SDS011;63138;55.082;38.804;2023-05-07T02:26:40;9.35;;;6.55;;
74630;SDS011;63138;55.082;38.804;2023-05-07T02:29:07;10.00;;;6.43;;
74630;SDS011;63138;55.082;38.804;2023-05-07T02:31:33;10.13;;;6.53;;
74630;SDS011;63138;55.082;38.804;2023-05-07T02:34:02;9.87;;;6.20;;
74630;SDS011;63138;55.082;38.804;2023-05-07T02:36:27;8.18;;;5.95;;
74630;SDS011;63138;55.082;38.804;2023-05-07T02:39:00;9.45;;;6.45;;
74630;SDS011;63138;55.082;38.804;2023-05-07T02:41:27;11.07;;;6.63;;
74630;SDS011;63138;55.082;38.804;2023-05-07T02:43:53;10.70;;;6.63;;
74630;SDS011;63138;55.082;38.804;2023-05-07T02:46:20;11.85;;;6.38;;
74630;SDS011;63138;55.082;38.804;2023-05-07T02:48:51;12.52;;;7.38;;
74630;SDS011;63138;55.082;38.804;2023-05-07T02:51:21;9.95;;;6.60;;
74630;SDS011;63138;55.082;38.804;2023-05-07T02:53:49;11.33;;;6.53;;
74630;SDS011;63138;55.082;38.804;2023-05-07T02:56:15;9.82;;;6.05;;
74630;SDS011;63138;55.082;38.804;2023-05-07T02:58:41;9.57;;;5.60;;
74630;SDS011;63138;55.082;38.804;2023-05-07T03:01:10;8.75;;;6.25;;
74630;SDS011;63138;55.082;38.804;2023-05-07T03:03:53;10.32;;;6.30;;
74630;SDS011;63138;55.082;38.804;2023-05-07T03:06:21;12.30;;;6.23;;
74630;SDS011;63138;55.082;38.804;2023-05-07T03:08:48;11.35;;;6.35;;
74630;SDS011;63138;55.082;38.804;2023-05-07T03:11:13;11.20;;;6.18;;
74630;SDS011;63138;55.082;38.804;2023-05-07T03:13:40;10.40;;;6.32;;
74630;SDS011;63138;55.082;38.804;2023-05-07T03:16:06;9.47;;;5.83;;
74630;SDS011;63138;55.082;38.804;2023-05-07T03:18:32;10.00;;;4.95;;
74630;SDS011;63138;55.082;38.804;2023-05-07T03:20:58;16.60;;;6.20;;
74630;SDS011;63138;55.082;38.804;2023-05-07T03:23:24;11.48;;;6.47;;
74630;SDS011;63138;55.082;38.804;2023-05-07T03:25:50;12.93;;;6.63;;
74630;SDS011;63138;55.082;38.804;2023-05-07T03:28:16;11.02;;;6.13;;
74630;SDS011;63138;55.082;38.804;2023-05-07T03:30:48;11.57;;;5.47;;
74630;SDS011;63138;55.082;38.804;2023-05-07T03:33:14;11.23;;;6.15;;
74630;SDS011;63138;55.082;38.804;2023-05-07T03:35:40;10.70;;;6.40;;
74630;SDS011;63138;55.082;38.804;2023-05-07T03:38:06;11.13;;;6.28;;
74630;SDS011;63138;55.082;38.804;2023-05-07T03:40:34;11.25;;;5.72;;
74630;SDS011;63138;55.082;38.804;2023-05-07T03:43:01;11.18;;;5.50;;
74630;SDS011;63138;55.082;38.804;2023-05-07T03:45:30;10.95;;;5.82;;
74630;SDS011;63138;55.082;38.804;2023-05-07T03:48:06;9.90;;;5.83;;
74630;SDS011;63138;55.082;38.804;2023-05-07T03:50:32;9.45;;;5.40;;
74630;SDS011;63138;55.082;38.804;2023-05-07T03:52:59;10.23;;;6.35;;
74630;SDS011;63138;55.082;38.804;2023-05-07T03:55:25;9.73;;;6.32;;
74630;SDS011;63138;55.082;38.804;2023-05-07T03:57:57;10.27;;;6.38;;
74630;SDS011;63138;55.082;38.804;2023-05-07T04:00:24;9.73;;;5.43;;
74630;SDS011;63138;55.082;38.804;2023-05-07T04:02:50;9.85;;;6.15;;
74630;SDS011;63138;55.082;38.804;2023-05-07T04:05:23;9.70;;;5.97;;
74630;SDS011;63138;55.082;38.804;2023-05-07T04:08:14;8.98;;;5.57;;
74630;SDS011;63138;55.082;38.804;2023-05-07T04:10:45;8.43;;;5.47;;
74630;SDS011;63138;55.082;38.804;2023-05-07T04:13:12;8.02;;;4.82;;
74630;SDS011;63138;55.082;38.804;2023-05-07T04:15:38;8.55;;;5.85;;
74630;SDS011;63138;55.082;38.804;2023-05-07T04:18:08;8.77;;;5.75;;
74630;SDS011;63138;55.082;38.804;2023-05-07T04:20:35;8.85;;;5.35;;
74630;SDS011;63138;55.082;38.804;2023-05-07T04:23:09;9.83;;;4.90;;
74630;SDS011;63138;55.082;38.804;2023-05-07T04:25:35;8.35;;;5.63;;
74630;SDS011;63138;55.082;38.804;2023-05-07T04:28:08;10.70;;;5.70;;
74630;SDS011;63138;55.082;38.804;2023-05-07T04:30:34;9.60;;;6.35;;
74630;SDS011;63138;55.082;38.804;2023-05-07T04:33:02;9.38;;;5.95;;
74630;SDS011;63138;55.082;38.804;2023-05-07T04:35:30;11.73;;;7.43;;
74630;SDS011;63138;55.082;38.804;2023-05-07T04:37:56;11.32;;;6.03;;
74630;SDS011;63138;55.082;38.804;2023-05-07T04:40:22;12.40;;;6.30;;
74630;SDS011;63138;55.082;38.804;2023-05-07T04:42:48;11.23;;;4.95;;
74630;SDS011;63138;55.082;38.804;2023-05-07T04:45:14;8.20;;;4.83;;
74630;SDS011;63138;55.082;38.804;2023-05-07T04:47:43;11.90;;;6.57;;
74630;SDS011;63138;55.082;38.804;2023-05-07T04:50:09;9.13;;;5.70;;
74630;SDS011;63138;55.082;38.804;2023-05-07T04:52:37;11.48;;;6.43;;
74630;SDS011;63138;55.082;38.804;2023-05-07T04:55:04;17.17;;;8.00;;
74630;SDS011;63138;55.082;38.804;2023-05-07T04:57:35;14.07;;;6.63;;
74630;SDS011;63138;55.082;38.804;2023-05-07T05:00:01;10.57;;;5.63;;
74630;SDS011;63138;55.082;38.804;2023-05-07T05:02:32;9.68;;;5.53;;
74630;SDS011;63138;55.082;38.804;2023-05-07T05:04:58;10.80;;;6.32;;
74630;SDS011;63138;55.082;38.804;2023-05-07T05:07:25;8.53;;;5.07;;
74630;SDS011;63138;55.082;38.804;2023-05-07T05:09:51;5.95;;;4.78;;
74630;SDS011;63138;55.082;38.804;2023-05-07T05:12:17;8.18;;;6.80;;
74630;SDS011;63138;55.082;38.804;2023-05-07T05:14:43;6.75;;;6.07;;
74630;SDS011;63138;55.082;38.804;2023-05-07T05:17:09;8.60;;;6.43;;
74630;SDS011;63138;55.082;38.804;2023-05-07T05:19:40;8.63;;;6.00;;
74630;SDS011;63138;55.082;38.804;2023-05-07T05:22:06;8.43;;;6.25;;
74630;SDS011;63138;55.082;38.804;2023-05-07T05:24:32;9.07;;;5.50;;
74630;SDS011;63138;55.082;38.804;2023-05-07T05:26:59;8.23;;;5.60;;
74630;SDS011;63138;55.082;38.804;2023-05-07T05:29:28;5.55;;;4.88;;
74630;SDS011;63138;55.082;38.804;2023-05-07T05:31:54;6.80;;;5.53;;
74630;SDS011;63138;55.082;38.804;2023-05-07T05:34:21;8.20;;;5.50;;
74630;SDS011;63138;55.082;38.804;2023-05-07T05:36:48;6.63;;;5.60;;
74630;SDS011;63138;55.082;38.804;2023-05-07T05:39:15;5.40;;;4.90;;
74630;SDS011;63138;55.082;38.804;2023-05-07T05:41:42;5.63;;;5.13;;
74630;SDS011;63138;55.082;38.804;2023-05-07T05:44:08;11.17;;;4.63;;
74630;SDS011;63138;55.082;38.804;2023-05-07T05:46:35;7.70;;;4.97;;
74630;SDS011;63138;55.082;38.804;2023-05-07T05:49:01;6.88;;;5.15;;
74630;SDS011;63138;55.082;38.804;2023-05-07T05:51:27;6.30;;;5.33;;
74630;SDS011;63138;55.082;38.804;2023-05-07T05:53:53;5.97;;;4.88;;
74630;SDS011;63138;55.082;38.804;2023-05-07T05:56:19;5.68;;;5.00;;
74630;SDS011;63138;55.082;38.804;2023-05-07T05:58:45;6.80;;;3.33;;
74630;SDS011;63138;55.082;38.804;2023-05-07T06:01:13;6.43;;;5.20;;
74630;SDS011;63138;55.082;38.804;2023-05-07T06:04:01;5.28;;;4.68;;
74630;SDS011;63138;55.082;38.804;2023-05-07T06:06:26;5.60;;;4.90;;
74630;SDS011;63138;55.082;38.804;2023-05-07T06:08:52;5.05;;;2.80;;
74630;SDS011;63138;55.082;38.804;2023-05-07T06:11:24;5.50;;;4.87;;
74630;SDS011;63138;55.082;38.804;2023-05-07T06:13:50;4.32;;;2.70;;
74630;SDS011;63138;55.082;38.804;2023-05-07T06:16:16;5.85;;;3.58;;
74630;SDS011;63138;55.082;38.804;2023-05-07T06:18:43;6.35;;;2.90;;
74630;SDS011;63138;55.082;38.804;2023-05-07T06:21:13;5.97;;;5.37;;
74630;SDS011;63138;55.082;38.804;2023-05-07T06:23:43;5.40;;;5.00;;
74630;SDS011;63138;55.082;38.804;2023-05-07T06:26:09;6.75;;;4.18;;
74630;SDS011;63138;55.082;38.804;2023-05-07T06:28:39;5.72;;;5.00;;
74630;SDS011;63138;55.082;38.804;2023-05-07T06:31:13;6.70;;;2.92;;
74630;SDS011;63138;55.082;38.804;2023-05-07T06:33:41;4.67;;;3.40;;
74630;SDS011;63138;55.082;38.804;2023-05-07T06:36:08;5.55;;;3.10;;
74630;SDS011;63138;55.082;38.804;2023-05-07T06:38:34;7.30;;;4.82;;
74630;SDS011;63138;55.082;38.804;2023-05-07T06:41:00;6.38;;;4.75;;
74630;SDS011;63138;55.082;38.804;2023-05-07T06:43:26;5.37;;;4.87;;
74630;SDS011;63138;55.082;38.804;2023-05-07T06:45:54;5.50;;;4.90;;
74630;SDS011;63138;55.082;38.804;2023-05-07T06:48:20;5.75;;;5.00;;
74630;SDS011;63138;55.082;38.804;2023-05-07T06:50:54;6.57;;;5.55;;
74630;SDS011;63138;55.082;38.804;2023-05-07T06:53:22;3.63;;;2.42;;
74630;SDS011;63138;55.082;38.804;2023-05-07T06:55:48;5.13;;;2.70;;
74630;SDS011;63138;55.082;38.804;2023-05-07T06:58:18;9.75;;;3.50;;
74630;SDS011;63138;55.082;38.804;2023-05-07T07:00:46;5.68;;;4.53;;
74630;SDS011;63138;55.082;38.804;2023-05-07T07:03:12;7.03;;;5.38;;
74630;SDS011;63138;55.082;38.804;2023-05-07T07:05:40;5.22;;;4.82;;
74630;SDS011;63138;55.082;38.804;2023-05-07T07:08:07;5.30;;;4.80;;
74630;SDS011;63138;55.082;38.804;2023-05-07T07:10:34;3.92;;;2.75;;
74630;SDS011;63138;55.082;38.804;2023-05-07T07:13:01;4.38;;;2.90;;
74630;SDS011;63138;55.082;38.804;2023-05-07T07:15:28;3.95;;;2.40;;
74630;SDS011;63138;55.082;38.804;2023-05-07T07:17:56;3.50;;;2.40;;
74630;SDS011;63138;55.082;38.804;2023-05-07T07:20:23;6.87;;;4.77;;
74630;SDS011;63138;55.082;38.804;2023-05-07T07:22:49;4.80;;;4.28;;
74630;SDS011;63138;55.082;38.804;2023-05-07T07:25:16;5.40;;;4.53;;
74630;SDS011;63138;55.082;38.804;2023-05-07T07:27:43;5.35;;;4.85;;
74630;SDS011;63138;55.082;38.804;2023-05-07T07:30:10;5.50;;;2.73;;
74630;SDS011;63138;55.082;38.804;2023-05-07T07:32:39;3.90;;;2.70;;
74630;SDS011;63138;55.082;38.804;2023-05-07T07:35:06;5.97;;;4.32;;
74630;SDS011;63138;55.082;38.804;2023-05-07T07:37:33;5.13;;;4.63;;
74630;SDS011;63138;55.082;38.804;2023-05-07T07:39:59;19.40;;;5.95;;
74630;SDS011;63138;55.082;38.804;2023-05-07T07:42:25;5.60;;;4.50;;
74630;SDS011;63138;55.082;38.804;2023-05-07T07:44:51;6.43;;;4.50;;
74630;SDS011;63138;55.082;38.804;2023-05-07T07:47:21;5.85;;;5.00;;
74630;SDS011;63138;55.082;38.804;2023-05-07T07:49:49;4.10;;;2.90;;
74630;SDS011;63138;55.082;38.804;2023-05-07T07:52:15;4.90;;;4.28;;
74630;SDS011;63138;55.082;38.804;2023-05-07T07:54:43;5.23;;;2.60;;
74630;SDS011;63138;55.082;38.804;2023-05-07T07:57:10;3.72;;;3.17;;
74630;SDS011;63138;55.082;38.804;2023-05-07T07:59:36;5.25;;;4.85;;
74630;SDS011;63138;55.082;38.804;2023-05-07T08:02:05;5.15;;;4.75;;
74630;SDS011;63138;55.082;38.804;2023-05-07T08:04:34;5.90;;;5.40;;
74630;SDS011;63138;55.082;38.804;2023-05-07T08:07:03;8.73;;;5.17;;
74630;SDS011;63138;55.082;38.804;2023-05-07T08:09:34;4.90;;;4.25;;
74630;SDS011;63138;55.082;38.804;2023-05-07T08:12:01;6.75;;;4.05;;
74630;SDS011;63138;55.082;38.804;2023-05-07T08:14:29;7.63;;;5.20;;
74630;SDS011;63138;55.082;38.804;2023-05-07T08:16:55;4.47;;;4.07;;
74630;SDS011;63138;55.082;38.804;2023-05-07T08:19:22;4.27;;;2.73;;
74630;SDS011;63138;55.082;38.804;2023-05-07T08:21:49;4.07;;;2.60;;
74630;SDS011;63138;55.082;38.804;2023-05-07T08:24:17;4.45;;;2.58;;
74630;SDS011;63138;55.082;38.804;2023-05-07T08:26:45;4.90;;;4.50;;
74630;SDS011;63138;55.082;38.804;2023-05-07T08:29:12;10.85;;;5.53;;
74630;SDS011;63138;55.082;38.804;2023-05-07T08:31:38;5.80;;;5.30;;
74630;SDS011;63138;55.082;38.804;2023-05-07T08:34:07;5.30;;;4.10;;
74630;SDS011;63138;55.082;38.804;2023-05-07T08:36:36;5.70;;;4.95;;
74630;SDS011;63138;55.082;38.804;2023-05-07T08:39:02;4.95;;;4.50;;
74630;SDS011;63138;55.082;38.804;2023-05-07T08:41:29;5.35;;;4.85;;
74630;SDS011;63138;55.082;38.804;2023-05-07T08:43:55;4.93;;;3.73;;
74630;SDS011;63138;55.082;38.804;2023-05-07T08:46:24;4.30;;;2.63;;
74630;SDS011;63138;55.082;38.804;2023-05-07T08:48:54;4.55;;;3.17;;
74630;SDS011;63138;55.082;38.804;2023-05-07T08:51:20;3.42;;;2.85;;
74630;SDS011;63138;55.082;38.804;2023-05-07T08:53:47;6.53;;;2.70;;
74630;SDS011;63138;55.082;38.804;2023-05-07T08:56:22;4.80;;;4.38;;
74630;SDS011;63138;55.082;38.804;2023-05-07T08:58:50;5.68;;;5.03;;
74630;SDS011;63138;55.082;38.804;2023-05-07T09:01:23;6.70;;;3.80;;
74630;SDS011;63138;55.082;38.804;2023-05-07T09:03:51;3.97;;;2.80;;
74630;SDS011;63138;55.082;38.804;2023-05-07T09:06:21;4.00;;;3.00;;
74630;SDS011;63138;55.082;38.804;2023-05-07T09:08:51;5.40;;;3.20;;
74630;SDS011;63138;55.082;38.804;2023-05-07T09:11:21;6.05;;;3.50;;
74630;SDS011;63138;55.082;38.804;2023-05-07T09:13:49;6.05;;;2.70;;
74630;SDS011;63138;55.082;38.804;2023-05-07T09:16:23;5.90;;;4.10;;
74630;SDS011;63138;55.082;38.804;2023-05-07T09:18:51;5.97;;;5.00;;
74630;SDS011;63138;55.082;38.804;2023-05-07T09:21:20;4.45;;;3.30;;
74630;SDS011;63138;55.082;38.804;2023-05-07T09:23:50;6.28;;;3.45;;
74630;SDS011;63138;55.082;38.804;2023-05-07T09:26:24;9.90;;;3.70;;
74630;SDS011;63138;55.082;38.804;2023-05-07T09:28:51;5.55;;;3.95;;
74630;SDS011;63138;55.082;38.804;2023-05-07T09:31:18;3.60;;;2.70;;
74630;SDS011;63138;55.082;38.804;2023-05-07T09:33:46;5.10;;;3.10;;
74630;SDS011;63138;55.082;38.804;2023-05-07T09:36:15;8.73;;;3.10;;
74630;SDS011;63138;55.082;38.804;2023-05-07T09:38:41;4.20;;;3.33;;
74630;SDS011;63138;55.082;38.804;2023-05-07T09:41:08;4.28;;;2.80;;
74630;SDS011;63138;55.082;38.804;2023-05-07T09:43:59;8.53;;;3.50;;
74630;SDS011;63138;55.082;38.804;2023-05-07T09:46:35;3.90;;;2.78;;
74630;SDS011;63138;55.082;38.804;2023-05-07T09:49:12;5.28;;;3.10;;
74630;SDS011;63138;55.082;38.804;2023-05-07T09:51:48;6.45;;;2.95;;
74630;SDS011;63138;55.082;38.804;2023-05-07T09:54:17;4.35;;;2.53;;
74630;SDS011;63138;55.082;38.804;2023-05-07T09:56:49;4.50;;;3.37;;
74630;SDS011;63138;55.082;38.804;2023-05-07T09:59:17;7.35;;;4.32;;
74630;SDS011;63138;55.082;38.804;2023-05-07T10:01:46;5.10;;;3.70;;
74630;SDS011;63138;55.082;38.804;2023-05-07T10:04:16;5.15;;;4.00;;
74630;SDS011;63138;55.082;38.804;2023-05-07T10:06:44;4.25;;;2.80;;
74630;SDS011;63138;55.082;38.804;2023-05-07T10:09:10;5.97;;;3.47;;
74630;SDS011;63138;55.082;38.804;2023-05-07T10:11:37;7.78;;;4.07;;
74630;SDS011;63138;55.082;38.804;2023-05-07T10:14:23;7.40;;;3.72;;
74630;SDS011;63138;55.082;38.804;2023-05-07T10:16:51;6.30;;;3.33;;
74630;SDS011;63138;55.082;38.804;2023-05-07T10:19:20;7.53;;;3.28;;
74630;SDS011;63138;55.082;38.804;2023-05-07T10:21:54;5.10;;;2.90;;
74630;SDS011;63138;55.082;38.804;2023-05-07T10:24:26;5.20;;;3.20;;
74630;SDS011;63138;55.082;38.804;2023-05-07T10:26:58;6.28;;;4.00;;
74630;SDS011;63138;55.082;38.804;2023-05-07T10:29:29;6.88;;;4.25;;
74630;SDS011;63138;55.082;38.804;2023-05-07T10:34:53;4.50;;;3.17;;
74630;SDS011;63138;55.082;38.804;2023-05-07T10:37:23;4.68;;;3.60;;
74630;SDS011;63138;55.082;38.804;2023-05-07T10:39:51;5.10;;;4.05;;
74630;SDS011;63138;55.082;38.804;2023-05-07T10:42:18;4.10;;;2.60;;
74630;SDS011;63138;55.082;38.804;2023-05-07T10:44:49;5.65;;;4.10;;
74630;SDS011;63138;55.082;38.804;2023-05-07T10:47:22;8.97;;;4.93;;
74630;SDS011;63138;55.082;38.804;2023-05-07T10:52:39;4.80;;;3.28;;
74630;SDS011;63138;55.082;38.804;2023-05-07T10:58:25;5.30;;;2.88;;
74630;SDS011;63138;55.082;38.804;2023-05-07T11:01:02;4.53;;;2.73;;
74630;SDS011;63138;55.082;38.804;2023-05-07T11:03:34;5.85;;;2.90;;
74630;SDS011;63138;55.082;38.804;2023-05-07T11:06:09;4.75;;;3.70;;
74630;SDS011;63138;55.082;38.804;2023-05-07T11:08:59;5.47;;;3.70;;
74630;SDS011;63138;55.082;38.804;2023-05-07T11:11:43;6.20;;;3.85;;
74630;SDS011;63138;55.082;38.804;2023-05-07T11:14:14;5.73;;;3.50;;
74630;SDS011;63138;55.082;38.804;2023-05-07T11:17:06;4.82;;;3.15;;
74630;SDS011;63138;55.082;38.804;2023-05-07T11:19:52;4.85;;;3.30;;
74630;SDS011;63138;55.082;38.804;2023-05-07T11:22:53;5.20;;;2.97;;
74630;SDS011;63138;55.082;38.804;2023-05-07T11:25:25;4.32;;;3.53;;
74630;SDS011;63138;55.082;38.804;2023-05-07T11:28:04;4.63;;;3.00;;
74630;SDS011;63138;55.082;38.804;2023-05-07T11:30:31;4.50;;;3.33;;
74630;SDS011;63138;55.082;38.804;2023-05-07T11:32:58;6.80;;;3.13;;
74630;SDS011;63138;55.082;38.804;2023-05-07T11:35:24;6.88;;;3.28;;
74630;SDS011;63138;55.082;38.804;2023-05-07T11:37:57;3.97;;;2.97;;
74630;SDS011;63138;55.082;38.804;2023-05-07T11:40:25;6.27;;;3.77;;
74630;SDS011;63138;55.082;38.804;2023-05-07T11:42:50;6.38;;;4.15;;
74630;SDS011;63138;55.082;38.804;2023-05-07T11:45:22;5.47;;;2.90;;
74630;SDS011;63138;55.082;38.804;2023-05-07T11:47:52;5.10;;;3.78;;
74630;SDS011;63138;55.082;38.804;2023-05-07T11:50:18;4.17;;;3.50;;
74630;SDS011;63138;55.082;38.804;2023-05-07T11:52:50;7.03;;;4.30;;
74630;SDS011;63138;55.082;38.804;2023-05-07T11:55:18;8.40;;;3.92;;
74630;SDS011;63138;55.082;38.804;2023-05-07T11:57:44;5.03;;;3.40;;
74630;SDS011;63138;55.082;38.804;2023-05-07T12:00:10;5.18;;;3.40;;
74630;SDS011;63138;55.082;38.804;2023-05-07T12:02:39;3.80;;;2.83;;
74630;SDS011;63138;55.082;38.804;2023-05-07T12:05:07;5.05;;;3.30;;
74630;SDS011;63138;55.082;38.804;2023-05-07T12:07:35;5.05;;;3.80;;
74630;SDS011;63138;55.082;38.804;2023-05-07T12:10:05;4.17;;;3.53;;
74630;SDS011;63138;55.082;38.804;2023-05-07T12:12:37;4.35;;;2.80;;
74630;SDS011;63138;55.082;38.804;2023-05-07T12:15:07;4.43;;;3.17;;
74630;SDS011;63138;55.082;38.804;2023-05-07T12:17:34;5.57;;;3.50;;
74630;SDS011;63138;55.082;38.804;2023-05-07T12:20:00;5.90;;;3.08;;
74630;SDS011;63138;55.082;38.804;2023-05-07T12:22:45;4.80;;;2.90;;
74630;SDS011;63138;55.082;38.804;2023-05-07T12:25:12;5.00;;;3.33;;
74630;SDS011;63138;55.082;38.804;2023-05-07T12:27:41;5.78;;;3.10;;
74630;SDS011;63138;55.082;38.804;2023-05-07T12:30:09;6.03;;;3.50;;
74630;SDS011;63138;55.082;38.804;2023-05-07T12:32:36;3.50;;;2.70;;
74630;SDS011;63138;55.082;38.804;2023-05-07T12:35:02;6.73;;;3.40;;
74630;SDS011;63138;55.082;38.804;2023-05-07T12:37:29;6.57;;;3.10;;
74630;SDS011;63138;55.082;38.804;2023-05-07T12:40:09;3.92;;;2.70;;
74630;SDS011;63138;55.082;38.804;2023-05-07T12:42:36;4.50;;;2.90;;
74630;SDS011;63138;55.082;38.804;2023-05-07T12:45:12;6.57;;;3.10;;
74630;SDS011;63138;55.082;38.804;2023-05-07T12:47:44;4.00;;;2.60;;
74630;SDS011;63138;55.082;38.804;2023-05-07T12:50:15;8.88;;;3.33;;
74630;SDS011;63138;55.082;38.804;2023-05-07T12:52:42;4.10;;;3.30;;
74630;SDS011;63138;55.082;38.804;2023-05-07T12:55:13;4.43;;;3.42;;
74630;SDS011;63138;55.082;38.804;2023-05-07T12:57:45;4.40;;;3.03;;
74630;SDS011;63138;55.082;38.804;2023-05-07T13:00:14;4.43;;;2.88;;
74630;SDS011;63138;55.082;38.804;2023-05-07T13:02:40;5.00;;;3.70;;
74630;SDS011;63138;55.082;38.804;2023-05-07T13:05:11;4.20;;;3.00;;
74630;SDS011;63138;55.082;38.804;2023-05-07T13:07:37;5.10;;;2.90;;
74630;SDS011;63138;55.082;38.804;2023-05-07T13:10:06;4.13;;;2.90;;
74630;SDS011;63138;55.082;38.804;2023-05-07T13:12:32;5.20;;;2.90;;
74630;SDS011;63138;55.082;38.804;2023-05-07T13:14:58;6.15;;;2.53;;
74630;SDS011;63138;55.082;38.804;2023-05-07T13:17:24;5.25;;;2.70;;
74630;SDS011;63138;55.082;38.804;2023-05-07T13:19:50;6.43;;;3.30;;
74630;SDS011;63138;55.082;38.804;2023-05-07T13:22:16;4.15;;;2.65;;
74630;SDS011;63138;55.082;38.804;2023-05-07T13:24:42;5.05;;;3.85;;
74630;SDS011;63138;55.082;38.804;2023-05-07T13:27:10;7.30;;;3.47;;
74630;SDS011;63138;55.082;38.804;2023-05-07T13:29:55;4.00;;;2.80;;
74630;SDS011;63138;55.082;38.804;2023-05-07T13:32:21;8.82;;;4.80;;
74630;SDS011;63138;55.082;38.804;2023-05-07T13:34:47;7.85;;;4.30;;
74630;SDS011;63138;55.082;38.804;2023-05-07T13:37:13;7.63;;;3.40;;
74630;SDS011;63138;55.082;38.804;2023-05-07T13:39:38;5.80;;;3.25;;
74630;SDS011;63138;55.082;38.804;2023-05-07T13:42:04;5.43;;;3.10;;
74630;SDS011;63138;55.082;38.804;2023-05-07T13:44:30;5.63;;;3.13;;
74630;SDS011;63138;55.082;38.804;2023-05-07T13:46:56;4.68;;;2.75;;
74630;SDS011;63138;55.082;38.804;2023-05-07T13:49:22;5.47;;;2.67;;
74630;SDS011;63138;55.082;38.804;2023-05-07T13:51:48;4.82;;;2.90;;
74630;SDS011;63138;55.082;38.804;2023-05-07T13:54:14;5.25;;;3.13;;
74630;SDS011;63138;55.082;38.804;2023-05-07T13:56:40;4.30;;;2.53;;
74630;SDS011;63138;55.082;38.804;2023-05-07T13:59:06;4.93;;;2.90;;
74630;SDS011;63138;55.082;38.804;2023-05-07T14:01:31;6.05;;;3.03;;
74630;SDS011;63138;55.082;38.804;2023-05-07T14:03:57;4.17;;;2.83;;
74630;SDS011;63138;55.082;38.804;2023-05-07T14:06:25;4.10;;;2.97;;
74630;SDS011;63138;55.082;38.804;2023-05-07T14:08:51;3.97;;;2.97;;
74630;SDS011;63138;55.082;38.804;2023-05-07T14:11:17;5.55;;;3.35;;
74630;SDS011;63138;55.082;38.804;2023-05-07T14:13:43;5.05;;;3.00;;
74630;SDS011;63138;55.082;38.804;2023-05-07T14:16:08;5.70;;;3.20;;
74630;SDS011;63138;55.082;38.804;2023-05-07T14:18:34;4.97;;;3.30;;
74630;SDS011;63138;55.082;38.804;2023-05-07T14:21:02;4.78;;;2.90;;
74630;SDS011;63138;55.082;38.804;2023-05-07T14:23:31;7.00;;;3.17;;
74630;SDS011;63138;55.082;38.804;2023-05-07T14:25:57;5.03;;;2.73;;
74630;SDS011;63138;55.082;38.804;2023-05-07T14:28:23;6.05;;;3.60;;
74630;SDS011;63138;55.082;38.804;2023-05-07T14:30:49;5.82;;;3.60;;
74630;SDS011;63138;55.082;38.804;2023-05-07T14:33:15;6.15;;;3.58;;
74630;SDS011;63138;55.082;38.804;2023-05-07T14:35:42;7.33;;;3.20;;
74630;SDS011;63138;55.082;38.804;2023-05-07T14:38:13;5.40;;;2.97;;
74630;SDS011;63138;55.082;38.804;2023-05-07T14:40:41;5.25;;;3.42;;
74630;SDS011;63138;55.082;38.804;2023-05-07T14:43:07;5.68;;;3.22;;
74630;SDS011;63138;55.082;38.804;2023-05-07T14:45:33;6.47;;;3.80;;
74630;SDS011;63138;55.082;38.804;2023-05-07T14:47:59;5.53;;;3.03;;
74630;SDS011;63138;55.082;38.804;2023-05-07T14:50:25;4.68;;;3.13;;